createdAt,value
2023-02-28T00:00:11.149Z,4.12
2023-02-28T00:02:39.159Z,4.05
2023-02-28T00:05:08.654Z,4.43
2023-02-28T00:07:36.990Z,4.20
2023-02-28T00:10:07.347Z,4.24
2023-02-28T00:12:35.223Z,4.34
2023-02-28T00:15:03.888Z,4.16
2023-02-28T00:17:33.000Z,4.03
2023-02-28T00:20:05.659Z,3.83
2023-02-28T00:22:33.374Z,3.90
2023-02-28T00:25:01.196Z,4.03
2023-02-28T00:27:28.924Z,4.04
2023-02-28T00:29:56.675Z,3.87
2023-02-28T00:32:24.395Z,3.65
2023-02-28T00:34:53.508Z,3.80
2023-02-28T00:37:21.243Z,3.94
2023-02-28T00:39:49.006Z,4.32
2023-02-28T00:42:16.777Z,4.55
2023-02-28T00:44:44.508Z,4.08
2023-02-28T00:47:12.297Z,3.74
2023-02-28T00:49:40.101Z,3.53
2023-02-28T00:52:09.209Z,3.36
2023-02-28T00:54:37.301Z,3.53
2023-02-28T00:57:05.158Z,3.80
2023-02-28T00:59:32.903Z,3.67
2023-02-28T01:02:01.393Z,3.57
2023-02-28T01:04:31.162Z,3.28
2023-02-28T01:06:58.939Z,3.31
2023-02-28T01:09:28.161Z,3.14
2023-02-28T01:11:55.949Z,3.51
2023-02-28T01:14:23.690Z,3.23
2023-02-28T01:16:52.660Z,3.83
2023-02-28T01:19:20.466Z,3.70
2023-02-28T01:21:48.265Z,3.67
2023-02-28T01:24:16.008Z,3.19
2023-02-28T01:26:45.207Z,3.31
2023-02-28T01:29:14.206Z,3.26
2023-02-28T01:31:41.918Z,3.15
2023-02-28T01:34:11.794Z,3.54
2023-02-28T01:36:39.541Z,3.50
2023-02-28T01:39:07.369Z,3.23
2023-02-28T01:41:36.853Z,2.88
2023-02-28T01:44:09.320Z,3.22
2023-02-28T01:46:38.076Z,3.46
2023-02-28T01:49:10.909Z,3.48
2023-02-28T01:51:46.644Z,3.71
2023-02-28T01:54:18.797Z,3.64
2023-02-28T01:56:51.769Z,3.65
2023-02-28T01:59:26.783Z,3.63
2023-02-28T02:01:55.461Z,2.91
2023-02-28T02:04:25.995Z,2.69
2023-02-28T02:06:54.103Z,2.64
2023-02-28T02:09:21.807Z,2.77
2023-02-28T02:11:49.616Z,2.81
2023-02-28T02:14:36.558Z,3.67
2023-02-28T02:17:16.417Z,3.71
2023-02-28T02:20:19.606Z,3.10
2023-02-28T02:23:27.766Z,2.83
2023-02-28T02:25:59.216Z,3.33
2023-02-28T02:29:02.026Z,3.36
2023-02-28T02:31:46.024Z,2.74
2023-02-28T02:34:45.319Z,2.85
2023-02-28T02:37:29.968Z,3.05
2023-02-28T02:40:05.648Z,2.82
2023-02-28T02:42:41.847Z,2.82
2023-02-28T02:45:16.783Z,1.97
2023-02-28T02:47:46.020Z,1.47
2023-02-28T02:50:21.761Z,2.15
2023-02-28T02:52:53.573Z,2.13
2023-02-28T02:55:24.679Z,1.72
2023-02-28T02:57:55.907Z,1.33
2023-02-28T03:00:28.412Z,1.91
2023-02-28T03:02:58.257Z,1.82
2023-02-28T03:05:30.863Z,1.67
2023-02-28T03:07:58.608Z,1.99
2023-02-28T03:10:36.258Z,2.47
2023-02-28T03:13:44.884Z,2.77
2023-02-28T03:16:38.871Z,2.88
2023-02-28T03:19:35.466Z,2.85
2023-02-28T03:22:28.904Z,2.51
2023-02-28T03:25:02.623Z,2.34
2023-02-28T03:27:33.279Z,2.23
2023-02-28T03:30:05.355Z,2.51
2023-02-28T03:32:39.695Z,2.47
2023-02-28T03:35:13.096Z,2.36
2023-02-28T03:37:45.113Z,2.13
2023-02-28T03:40:16.477Z,2.17
2023-02-28T03:42:49.569Z,1.72
2023-02-28T03:45:20.364Z,1.32
2023-02-28T03:47:53.525Z,1.43
2023-02-28T03:50:25.659Z,1.14
2023-02-28T03:53:02.200Z,0.85
2023-02-28T03:55:35.202Z,0.78
2023-02-28T03:58:07.645Z,0.88
2023-02-28T04:00:39.976Z,0.68
2023-02-28T04:03:08.270Z,0.67
2023-02-28T04:05:50.117Z,1.21
2023-02-28T04:08:19.329Z,1.34
2023-02-28T04:10:53.266Z,1.15
2023-02-28T04:13:20.996Z,1.39
2023-02-28T04:15:48.741Z,1.28
2023-02-28T04:18:16.499Z,1.19
2023-02-28T04:20:44.234Z,1.86
2023-02-28T04:23:11.957Z,2.38
2023-02-28T04:25:41.930Z,2.11
2023-02-28T04:28:10.708Z,2.16
2023-02-28T04:30:40.349Z,2.24
2023-02-28T04:33:08.386Z,2.27
2023-02-28T04:35:36.126Z,1.67
2023-02-28T04:38:03.915Z,1.97
2023-02-28T04:40:31.658Z,1.48
2023-02-28T04:43:00.747Z,1.66
2023-02-28T04:45:31.090Z,2.03
2023-02-28T04:47:58.868Z,1.50
2023-02-28T04:50:26.587Z,1.45
2023-02-28T04:52:54.307Z,1.14
2023-02-28T04:55:22.017Z,1.14
2023-02-28T04:57:49.768Z,0.69
2023-02-28T05:00:19.717Z,1.10
2023-02-28T05:02:47.416Z,1.12
2023-02-28T05:05:19.048Z,1.46
2023-02-28T05:07:46.969Z,1.77
2023-02-28T05:10:14.794Z,1.19
2023-02-28T05:12:42.552Z,1.67
2023-02-28T05:15:15.101Z,1.78
2023-02-28T05:17:44.680Z,1.90
2023-02-28T05:20:15.598Z,1.94
2023-02-28T05:22:44.567Z,1.57
2023-02-28T05:25:15.999Z,1.90
2023-02-28T05:27:43.750Z,1.09
2023-02-28T05:30:12.661Z,0.93
2023-02-28T05:32:43.738Z,1.26
2023-02-28T05:35:13.744Z,1.51
2023-02-28T05:37:41.562Z,0.83
2023-02-28T05:40:11.264Z,0.73
2023-02-28T05:42:39.154Z,0.81
2023-02-28T05:45:07.910Z,0.70
2023-02-28T05:47:35.731Z,0.94
2023-02-28T05:50:03.616Z,1.22
2023-02-28T05:52:32.755Z,1.14
2023-02-28T05:55:03.326Z,1.16
2023-02-28T05:57:31.107Z,1.57
2023-02-28T05:59:58.831Z,1.18
2023-02-28T06:02:26.660Z,0.59
2023-02-28T06:04:54.458Z,0.93
2023-02-28T06:07:23.430Z,0.92
2023-02-28T06:09:52.560Z,0.95
2023-02-28T06:12:20.294Z,0.67
2023-02-28T06:14:48.073Z,1.11
2023-02-28T06:17:15.828Z,0.92
2023-02-28T06:19:43.547Z,0.74
2023-02-28T06:22:11.265Z,0.87
2023-02-28T06:24:39.016Z,0.84
2023-02-28T06:27:08.094Z,0.56
2023-02-28T06:29:36.903Z,0.47
2023-02-28T06:32:04.682Z,0.01
2023-02-28T06:34:32.462Z,0.44
2023-02-28T06:37:03.295Z,0.52
2023-02-28T06:39:31.157Z,0.36
2023-02-28T06:41:59.007Z,0.55
2023-02-28T06:44:28.102Z,0.60
2023-02-28T06:46:55.853Z,0.85
2023-02-28T06:49:23.680Z,0.55
2023-02-28T06:51:51.416Z,0.17
2023-02-28T06:54:19.146Z,0.01
2023-02-28T06:56:47.755Z,0.51
2023-02-28T06:59:15.570Z,0.39
2023-02-28T07:01:45.072Z,0.65
2023-02-28T07:04:14.158Z,0.85
2023-02-28T07:06:42.010Z,0.68
2023-02-28T07:09:10.320Z,0.56
2023-02-28T07:11:38.047Z,1.00
2023-02-28T07:14:05.786Z,1.02
2023-02-28T07:16:33.730Z,1.60
2023-02-28T07:19:02.819Z,1.62
2023-02-28T07:21:30.830Z,1.75
2023-02-28T07:23:58.848Z,2.06
2023-02-28T07:26:26.675Z,2.26
2023-02-28T07:28:55.296Z,2.27
2023-02-28T07:31:23.168Z,2.30
2023-02-28T07:33:51.019Z,2.15
2023-02-28T07:36:20.596Z,2.80
2023-02-28T07:38:51.081Z,2.88
2023-02-28T07:41:20.397Z,2.83
2023-02-28T07:43:48.434Z,3.01
2023-02-28T07:46:18.346Z,3.25
2023-02-28T07:48:46.780Z,2.91
2023-02-28T07:51:14.909Z,2.68
2023-02-28T07:53:44.427Z,3.36
2023-02-28T07:56:12.576Z,3.27
2023-02-28T07:58:40.409Z,3.35
2023-02-28T08:01:09.739Z,3.86
2023-02-28T08:03:38.826Z,4.02
2023-02-28T08:06:08.479Z,4.83
2023-02-28T08:08:36.290Z,5.01
2023-02-28T08:11:06.053Z,5.77
2023-02-28T08:13:34.065Z,6.41
2023-02-28T08:16:04.790Z,6.92
2023-02-28T08:18:32.585Z,7.51
2023-02-28T08:21:00.308Z,7.45
2023-02-28T08:23:28.124Z,7.69
2023-02-28T08:25:56.638Z,8.35
2023-02-28T08:28:27.392Z,8.01
2023-02-28T08:30:55.762Z,7.75
2023-02-28T08:33:23.858Z,9.51
2023-02-28T08:35:55.304Z,8.29
2023-02-28T08:38:23.795Z,8.35
2023-02-28T08:40:51.743Z,10.14
2023-02-28T08:43:19.522Z,8.96
2023-02-28T08:45:48.664Z,10.75
2023-02-28T08:48:18.654Z,10.69
2023-02-28T08:50:55.759Z,10.79
2023-02-28T08:53:33.580Z,11.12
2023-02-28T08:56:02.814Z,10.71
2023-02-28T08:58:30.690Z,10.47
2023-02-28T09:01:00.051Z,10.24
2023-02-28T09:03:29.413Z,9.94
2023-02-28T09:05:58.601Z,9.99
2023-02-28T09:08:27.230Z,9.66
2023-02-28T09:10:55.471Z,10.87
2023-02-28T09:13:23.225Z,10.52
2023-02-28T09:15:50.991Z,10.63
2023-02-28T09:18:20.306Z,10.07
2023-02-28T09:20:48.338Z,10.54
2023-02-28T09:23:16.133Z,10.46
2023-02-28T09:25:48.615Z,12.03
2023-02-28T09:28:17.778Z,12.39
2023-02-28T09:30:48.077Z,13.40
2023-02-28T09:33:16.426Z,13.17
2023-02-28T09:35:45.562Z,12.78
2023-02-28T09:38:13.302Z,12.87
2023-02-28T09:40:49.100Z,13.21
2023-02-28T09:43:19.104Z,13.36
2023-02-28T09:45:59.583Z,12.94
2023-02-28T09:48:31.604Z,12.75
2023-02-28T09:51:04.820Z,14.55
2023-02-28T09:53:35.873Z,13.44
2023-02-28T09:56:06.769Z,14.14
2023-02-28T09:58:43.084Z,15.00
2023-02-28T10:01:21.120Z,13.38
2023-02-28T10:03:55.836Z,15.12
2023-02-28T10:06:31.267Z,13.94
2023-02-28T10:09:03.862Z,14.22
2023-02-28T10:11:34.454Z,14.47
2023-02-28T10:14:05.500Z,13.68
2023-02-28T10:16:38.817Z,14.72
2023-02-28T10:19:13.980Z,14.58
2023-02-28T10:21:48.333Z,14.05
2023-02-28T10:24:23.862Z,15.59
2023-02-28T10:26:58.087Z,16.38
2023-02-28T10:29:25.893Z,14.87
2023-02-28T10:31:53.656Z,15.52
2023-02-28T10:34:21.428Z,14.54
2023-02-28T10:36:52.267Z,15.69
2023-02-28T10:39:40.837Z,14.71
2023-02-28T10:42:26.885Z,15.28
2023-02-28T10:45:13.205Z,15.81
2023-02-28T10:47:53.896Z,15.40
2023-02-28T10:50:46.850Z,15.03
2023-02-28T10:53:30.288Z,15.94
2023-02-28T10:55:59.783Z,15.62
2023-02-28T10:58:30.122Z,15.59
2023-02-28T11:00:58.377Z,15.29
2023-02-28T11:03:32.358Z,14.18
2023-02-28T11:06:01.088Z,14.20
2023-02-28T11:08:30.175Z,15.06
2023-02-28T11:11:00.134Z,14.73
2023-02-28T11:13:34.916Z,15.24
2023-02-28T11:16:07.000Z,15.09
2023-02-28T11:18:43.108Z,15.61
2023-02-28T11:21:13.727Z,15.64
2023-02-28T11:23:43.670Z,15.45
2023-02-28T11:26:12.339Z,15.49
2023-02-28T11:28:42.244Z,15.23
2023-02-28T11:31:20.557Z,16.68
2023-02-28T11:33:51.844Z,16.24
2023-02-28T11:36:22.794Z,15.00
2023-02-28T11:38:52.532Z,15.04
2023-02-28T11:41:46.814Z,15.28
2023-02-28T11:44:30.931Z,15.35
2023-02-28T11:47:03.261Z,15.65
2023-02-28T11:49:40.447Z,15.66
2023-02-28T11:52:22.731Z,15.52
2023-02-28T11:55:04.773Z,16.41
2023-02-28T11:57:40.473Z,15.74
2023-02-28T12:00:21.843Z,15.98
2023-02-28T12:03:02.300Z,15.90
2023-02-28T12:05:36.611Z,14.97
2023-02-28T12:08:19.983Z,15.88
2023-02-28T12:11:04.547Z,14.81
2023-02-28T12:13:43.598Z,15.83
2023-02-28T12:16:39.450Z,15.82
2023-02-28T12:19:19.642Z,15.41
2023-02-28T12:22:14.860Z,16.46
2023-02-28T12:25:01.448Z,16.81
2023-02-28T12:27:33.978Z,16.19
2023-02-28T12:30:08.150Z,16.63
2023-02-28T12:32:39.425Z,16.10
2023-02-28T12:35:15.413Z,16.57
2023-02-28T12:37:47.951Z,15.39
2023-02-28T12:40:21.238Z,16.11
2023-02-28T12:42:54.248Z,15.66
2023-02-28T12:45:25.059Z,15.60
2023-02-28T12:47:58.851Z,15.99
2023-02-28T12:50:27.911Z,14.16
2023-02-28T12:53:01.891Z,15.01
2023-02-28T12:55:36.007Z,15.74
2023-02-28T12:58:12.893Z,13.88
2023-02-28T13:00:54.660Z,14.99
2023-02-28T13:03:43.942Z,15.65
2023-02-28T13:06:22.135Z,15.71
2023-02-28T13:09:02.957Z,16.10
2023-02-28T13:11:33.167Z,16.26
2023-02-28T13:14:04.657Z,14.86
2023-02-28T13:16:58.761Z,15.53
2023-02-28T13:19:28.221Z,16.56
2023-02-28T13:21:57.132Z,16.76
2023-02-28T13:24:44.541Z,16.84
2023-02-28T13:27:41.506Z,16.89
2023-02-28T13:30:46.326Z,16.34
2023-02-28T13:33:25.205Z,16.43
2023-02-28T13:36:10.149Z,16.29
2023-02-28T13:38:41.755Z,16.53
2023-02-28T13:41:47.833Z,15.98
2023-02-28T13:44:18.249Z,16.20
2023-02-28T13:47:22.683Z,16.25
2023-02-28T13:49:53.405Z,16.07
2023-02-28T13:52:25.861Z,16.27
2023-02-28T13:55:17.103Z,16.39
2023-02-28T13:58:01.329Z,15.30
2023-02-28T14:00:44.171Z,16.53
2023-02-28T14:03:36.245Z,16.17
2023-02-28T14:06:24.250Z,15.83
2023-02-28T14:08:57.328Z,15.88
2023-02-28T14:11:33.757Z,15.43
2023-02-28T14:14:02.249Z,14.95
2023-02-28T14:16:40.320Z,14.83
2023-02-28T14:19:14.145Z,15.54
2023-02-28T14:21:53.451Z,15.21
2023-02-28T14:24:53.200Z,15.96
2023-02-28T14:27:31.832Z,15.58
2023-02-28T14:30:43.159Z,15.29
2023-02-28T14:33:24.548Z,14.66
2023-02-28T14:36:04.651Z,14.23
2023-02-28T14:38:38.174Z,13.77
2023-02-28T14:41:14.905Z,14.95
2023-02-28T14:43:52.202Z,14.14
2023-02-28T14:46:21.032Z,14.25
2023-02-28T14:48:49.480Z,13.13
2023-02-28T14:51:22.272Z,14.36
2023-02-28T14:53:55.912Z,14.51
2023-02-28T14:56:28.726Z,14.11
2023-02-28T14:58:58.355Z,14.74
2023-02-28T15:01:27.242Z,14.45
2023-02-28T15:04:03.821Z,13.67
2023-02-28T15:06:32.401Z,13.37
2023-02-28T15:09:12.747Z,13.79
2023-02-28T15:11:41.621Z,13.62
2023-02-28T15:14:16.087Z,13.80
2023-02-28T15:16:46.299Z,14.39
2023-02-28T15:19:19.991Z,14.20
2023-02-28T15:21:51.601Z,13.98
2023-02-28T15:24:25.246Z,13.60
2023-02-28T15:26:56.813Z,13.82
2023-02-28T15:29:27.759Z,13.73
2023-02-28T15:31:59.828Z,14.41
2023-02-28T15:34:42.344Z,14.86
2023-02-28T15:37:35.663Z,14.53
2023-02-28T15:40:15.113Z,14.88
2023-02-28T15:42:44.712Z,15.38
2023-02-28T15:45:38.474Z,15.95
2023-02-28T15:48:14.279Z,15.16
2023-02-28T15:50:42.675Z,14.34
2023-02-28T15:53:17.487Z,13.99
2023-02-28T15:55:47.183Z,13.28
2023-02-28T15:58:15.961Z,13.70
2023-02-28T16:00:50.464Z,14.06
2023-02-28T16:03:29.488Z,13.54
2023-02-28T16:06:35.311Z,13.74
2023-02-28T16:09:03.685Z,12.03
2023-02-28T16:11:35.510Z,11.97
2023-02-28T16:14:04.068Z,11.23
2023-02-28T16:16:33.697Z,10.69
2023-02-28T16:19:01.587Z,11.16
2023-02-28T16:21:29.596Z,10.64
2023-02-28T16:23:57.436Z,11.10
2023-02-28T16:26:28.291Z,10.20
2023-02-28T16:28:57.465Z,9.58
2023-02-28T16:31:28.696Z,10.46
2023-02-28T16:33:58.086Z,10.45
2023-02-28T16:36:26.969Z,10.43
2023-02-28T16:38:56.364Z,10.30
2023-02-28T16:41:26.408Z,9.74
2023-02-28T16:43:59.739Z,9.91
2023-02-28T16:46:33.608Z,9.76
2023-02-28T16:49:01.348Z,9.79
2023-02-28T16:51:29.459Z,9.68
2023-02-28T16:53:57.260Z,9.57
2023-02-28T16:56:27.181Z,9.48
2023-02-28T16:59:02.648Z,9.45
2023-02-28T17:01:31.246Z,8.82
2023-02-28T17:03:59.148Z,9.00
2023-02-28T17:06:29.574Z,8.95
2023-02-28T17:08:58.621Z,8.71
2023-02-28T17:11:27.041Z,8.63
2023-02-28T17:13:55.595Z,8.60
2023-02-28T17:16:30.065Z,8.65
2023-02-28T17:19:00.316Z,8.44
2023-02-28T17:21:28.311Z,8.35
2023-02-28T17:23:56.142Z,8.33
2023-02-28T17:26:25.588Z,8.33
2023-02-28T17:28:56.604Z,8.24
2023-02-28T17:31:26.886Z,8.41
2023-02-28T17:33:55.619Z,8.63
2023-02-28T17:36:26.832Z,8.75
2023-02-28T17:38:56.101Z,8.30
2023-02-28T17:41:24.435Z,8.21
2023-02-28T17:43:52.341Z,8.20
2023-02-28T17:46:22.221Z,7.70
2023-02-28T17:48:52.290Z,7.67
2023-02-28T17:51:21.752Z,7.57
2023-02-28T17:53:50.090Z,7.93
2023-02-28T17:56:20.975Z,7.98
2023-02-28T17:58:48.857Z,7.76
2023-02-28T18:01:16.679Z,7.55
2023-02-28T18:03:44.661Z,7.86
2023-02-28T18:06:18.927Z,7.74
2023-02-28T18:08:46.984Z,7.25
2023-02-28T18:11:22.018Z,7.29
2023-02-28T18:13:51.971Z,7.11
2023-02-28T18:16:21.876Z,6.96
2023-02-28T18:18:50.148Z,7.12
2023-02-28T18:21:19.582Z,7.03
2023-02-28T18:23:48.867Z,6.99
2023-02-28T18:26:17.977Z,6.91
2023-02-28T18:28:45.975Z,6.89
2023-02-28T18:31:16.252Z,6.77
2023-02-28T18:33:46.594Z,6.88
2023-02-28T18:36:14.645Z,7.12
2023-02-28T18:38:44.345Z,7.56
2023-02-28T18:41:12.946Z,7.04
2023-02-28T18:43:41.300Z,6.68
2023-02-28T18:46:11.045Z,6.70
2023-02-28T18:48:39.406Z,6.44
2023-02-28T18:51:09.854Z,6.21
2023-02-28T18:53:38.292Z,6.22
2023-02-28T18:56:09.521Z,6.23
2023-02-28T18:58:37.417Z,6.06
2023-02-28T19:01:06.355Z,6.01
2023-02-28T19:03:34.181Z,5.95
2023-02-28T19:06:01.939Z,6.08
2023-02-28T19:08:29.837Z,6.23
2023-02-28T19:10:57.722Z,6.42
2023-02-28T19:13:27.009Z,6.66
2023-02-28T19:16:02.716Z,6.52
2023-02-28T19:18:30.836Z,6.15
2023-02-28T19:20:58.663Z,6.24
2023-02-28T19:23:26.555Z,6.21
2023-02-28T19:25:55.853Z,6.56
2023-02-28T19:28:26.493Z,6.88
2023-02-28T19:30:56.561Z,6.25
2023-02-28T19:33:24.368Z,6.38
2023-02-28T19:35:55.212Z,6.18
2023-02-28T19:38:23.152Z,6.04
2023-02-28T19:40:51.591Z,6.04
2023-02-28T19:43:21.740Z,6.21
2023-02-28T19:45:49.476Z,6.37
2023-02-28T19:48:18.642Z,6.63
2023-02-28T19:50:46.360Z,6.30
2023-02-28T19:53:14.458Z,5.97
2023-02-28T19:55:42.484Z,6.03
2023-02-28T19:58:10.783Z,5.79
2023-02-28T20:00:38.484Z,5.17
2023-02-28T20:03:06.598Z,5.07
2023-02-28T20:05:35.667Z,4.89
2023-02-28T20:08:03.450Z,5.41
2023-02-28T20:10:32.082Z,5.32
2023-02-28T20:12:59.814Z,5.38
2023-02-28T20:15:27.657Z,5.20
2023-02-28T20:17:57.329Z,5.44
2023-02-28T20:20:25.120Z,5.73
2023-02-28T20:22:54.312Z,5.65
2023-02-28T20:25:22.255Z,6.01
2023-02-28T20:27:49.988Z,5.38
2023-02-28T20:30:17.889Z,5.07
2023-02-28T20:32:45.651Z,4.71
2023-02-28T20:35:13.830Z,4.53
2023-02-28T20:37:41.542Z,5.23
2023-02-28T20:40:12.163Z,5.63
2023-02-28T20:42:39.900Z,4.75
2023-02-28T20:45:08.882Z,4.74
2023-02-28T20:47:36.647Z,4.89
2023-02-28T20:50:04.611Z,5.38
2023-02-28T20:52:32.444Z,5.25
2023-02-28T20:55:00.187Z,5.54
2023-02-28T20:57:31.418Z,5.86
2023-02-28T20:59:59.157Z,5.29
2023-02-28T21:02:26.930Z,4.67
2023-02-28T21:04:54.674Z,4.53
2023-02-28T21:07:22.399Z,4.30
2023-02-28T21:09:50.134Z,4.68
2023-02-28T21:12:18.512Z,5.05
2023-02-28T21:14:47.626Z,5.26
2023-02-28T21:17:15.656Z,5.02
2023-02-28T21:19:43.388Z,4.51
2023-02-28T21:22:12.035Z,4.84
2023-02-28T21:24:40.271Z,4.66
2023-02-28T21:27:08.000Z,4.72
2023-02-28T21:29:35.760Z,4.84
2023-02-28T21:32:06.053Z,4.74
2023-02-28T21:34:33.808Z,4.23
2023-02-28T21:37:02.476Z,4.86
2023-02-28T21:39:30.753Z,3.95
2023-02-28T21:42:03.906Z,3.95
2023-02-28T21:44:34.227Z,3.68
2023-02-28T21:47:02.248Z,3.51
2023-02-28T21:49:31.795Z,3.44
2023-02-28T21:52:00.065Z,3.50
2023-02-28T21:54:27.934Z,3.68
2023-02-28T21:56:56.721Z,3.41
2023-02-28T21:59:24.644Z,3.45
2023-02-28T22:01:54.940Z,3.49
2023-02-28T22:04:22.811Z,3.68
2023-02-28T22:06:53.709Z,3.83
2023-02-28T22:09:22.414Z,3.74
2023-02-28T22:11:50.367Z,3.77
2023-02-28T22:14:18.492Z,3.76
2023-02-28T22:16:55.172Z,3.50
2023-02-28T22:19:24.249Z,3.59
2023-02-28T22:21:54.697Z,4.25
2023-02-28T22:24:24.410Z,4.17
2023-02-28T22:26:53.142Z,4.07
2023-02-28T22:29:21.093Z,4.07
2023-02-28T22:31:49.050Z,4.03
2023-02-28T22:34:16.971Z,3.71
2023-02-28T22:36:44.981Z,3.98
2023-02-28T22:39:14.180Z,3.93
2023-02-28T22:41:41.927Z,3.66
2023-02-28T22:44:09.722Z,3.70
2023-02-28T22:46:37.621Z,3.80
2023-02-28T22:49:06.335Z,3.91
2023-02-28T22:51:35.052Z,3.45
2023-02-28T22:54:03.578Z,3.76
2023-02-28T22:56:33.060Z,4.42
2023-02-28T22:59:02.071Z,3.34
2023-02-28T23:01:32.086Z,3.35
2023-02-28T23:04:00.654Z,3.02
2023-02-28T23:06:30.647Z,3.08
2023-02-28T23:09:01.041Z,3.20
2023-02-28T23:11:31.213Z,3.12
2023-02-28T23:14:00.491Z,3.50
2023-02-28T23:16:30.676Z,3.73
2023-02-28T23:19:01.929Z,3.77
2023-02-28T23:21:29.927Z,3.57
2023-02-28T23:23:57.660Z,3.52
2023-02-28T23:26:25.479Z,3.56
2023-02-28T23:28:53.283Z,3.69
2023-02-28T23:31:22.651Z,3.52
2023-02-28T23:33:51.152Z,3.18
2023-02-28T23:36:18.872Z,3.30
2023-02-28T23:38:49.258Z,3.41
2023-02-28T23:41:17.730Z,2.99
2023-02-28T23:43:45.749Z,3.04
2023-02-28T23:46:15.080Z,3.03
2023-02-28T23:48:44.782Z,3.04
2023-02-28T23:51:16.692Z,2.91
2023-02-28T23:53:46.941Z,2.97
2023-02-28T23:56:16.703Z,2.79
2023-02-28T23:58:46.039Z,2.86
